createdAt,value
2023-05-19T00:02:24.342Z,100.00
2023-05-19T00:05:16.263Z,100.00
2023-05-19T00:07:49.898Z,100.00
2023-05-19T00:10:32.008Z,100.00
2023-05-19T00:13:03.881Z,100.00
2023-05-19T00:15:35.957Z,100.00
2023-05-19T00:18:04.164Z,100.00
2023-05-19T00:20:37.285Z,100.00
2023-05-19T00:23:10.990Z,100.00
2023-05-19T00:25:46.350Z,100.00
2023-05-19T00:28:14.683Z,100.00
2023-05-19T00:30:42.973Z,100.00
2023-05-19T00:33:11.628Z,100.00
2023-05-19T00:35:47.490Z,100.00
2023-05-19T00:38:21.561Z,100.00
2023-05-19T00:40:52.195Z,100.00
2023-05-19T00:43:41.256Z,100.00
2023-05-19T00:46:13.940Z,100.00
2023-05-19T00:48:44.754Z,100.00
2023-05-19T00:51:16.988Z,100.00
2023-05-19T00:53:59.236Z,100.00
2023-05-19T00:56:28.986Z,100.00
2023-05-19T00:58:58.532Z,100.00
2023-05-19T01:01:28.031Z,100.00
2023-05-19T01:04:00.087Z,100.00
2023-05-19T01:06:29.783Z,100.00
2023-05-19T01:08:58.726Z,100.00
2023-05-19T01:11:28.202Z,100.00
2023-05-19T01:13:56.822Z,100.00
2023-05-19T01:16:30.860Z,100.00
2023-05-19T01:19:11.123Z,100.00
2023-05-19T01:22:08.060Z,100.00
2023-05-19T01:25:01.576Z,100.00
2023-05-19T01:27:45.649Z,100.00
2023-05-19T01:30:27.219Z,100.00
2023-05-19T01:32:59.503Z,100.00
2023-05-19T01:35:28.818Z,100.00
2023-05-19T01:38:00.251Z,100.00
2023-05-19T01:40:30.438Z,100.00
2023-05-19T01:43:01.160Z,100.00
2023-05-19T01:45:32.980Z,100.00
2023-05-19T01:48:04.363Z,100.00
2023-05-19T01:50:33.709Z,100.00
2023-05-19T01:53:02.896Z,100.00
2023-05-19T01:55:31.340Z,100.00
2023-05-19T01:58:11.730Z,100.00
2023-05-19T02:00:52.727Z,100.00
2023-05-19T02:03:32.618Z,100.00
2023-05-19T02:06:11.307Z,100.00
2023-05-19T02:08:44.248Z,100.00
2023-05-19T02:11:21.777Z,100.00
2023-05-19T02:13:53.441Z,100.00
2023-05-19T02:16:28.036Z,100.00
2023-05-19T02:18:57.559Z,100.00
2023-05-19T02:21:25.957Z,100.00
2023-05-19T02:23:54.114Z,100.00
2023-05-19T02:26:22.917Z,100.00
2023-05-19T02:28:51.113Z,100.00
2023-05-19T02:31:19.248Z,100.00
2023-05-19T02:33:48.878Z,100.00
2023-05-19T02:36:17.219Z,100.00
2023-05-19T02:38:45.381Z,100.00
2023-05-19T02:41:13.566Z,100.00
2023-05-19T02:43:41.788Z,100.00
2023-05-19T02:46:09.967Z,100.00
2023-05-19T02:48:38.250Z,100.00
2023-05-19T02:51:07.910Z,100.00
2023-05-19T02:53:36.124Z,100.00
2023-05-19T02:56:04.591Z,100.00
2023-05-19T02:58:32.823Z,100.00
2023-05-19T03:01:01.079Z,100.00
2023-05-19T03:03:29.279Z,100.00
2023-05-19T03:05:57.487Z,100.00
2023-05-19T03:08:27.366Z,100.00
2023-05-19T03:10:55.569Z,100.00
2023-05-19T03:13:23.889Z,100.00
2023-05-19T03:15:52.027Z,100.00
2023-05-19T03:18:20.274Z,100.00
2023-05-19T03:20:48.585Z,100.00
2023-05-19T03:23:16.907Z,100.00
2023-05-19T03:25:46.443Z,100.00
2023-05-19T03:28:14.644Z,100.00
2023-05-19T03:30:42.783Z,100.00
2023-05-19T03:33:11.197Z,100.00
2023-05-19T03:35:39.579Z,100.00
2023-05-19T03:38:07.735Z,100.00
2023-05-19T03:40:35.863Z,100.00
2023-05-19T03:43:05.589Z,100.00
2023-05-19T03:45:33.823Z,100.00
2023-05-19T03:48:02.048Z,100.00
2023-05-19T03:50:32.000Z,100.00
2023-05-19T03:53:00.541Z,100.00
2023-05-19T03:55:29.947Z,100.00
2023-05-19T03:57:58.314Z,100.00
2023-05-19T04:00:27.829Z,100.00
2023-05-19T04:02:56.245Z,100.00
2023-05-19T04:05:24.492Z,100.00
2023-05-19T04:07:53.100Z,100.00
2023-05-19T04:10:21.437Z,100.00
2023-05-19T04:12:49.699Z,100.00
2023-05-19T04:15:17.961Z,100.00
2023-05-19T04:17:47.769Z,100.00
2023-05-19T04:20:17.179Z,100.00
2023-05-19T04:22:45.580Z,100.00
2023-05-19T04:25:13.823Z,100.00
2023-05-19T04:27:42.577Z,100.00
2023-05-19T04:30:12.209Z,100.00
2023-05-19T04:32:41.665Z,100.00
2023-05-19T04:35:23.601Z,100.00
2023-05-19T04:37:54.416Z,100.00
2023-05-19T04:40:23.949Z,100.00
2023-05-19T04:42:53.036Z,100.00
2023-05-19T04:45:21.246Z,100.00
2023-05-19T04:47:49.447Z,100.00
2023-05-19T04:50:19.122Z,100.00
2023-05-19T04:52:47.297Z,100.00
2023-05-19T04:55:16.035Z,100.00
2023-05-19T04:57:44.702Z,100.00
2023-05-19T05:00:14.627Z,100.00
2023-05-19T05:02:43.656Z,100.00
2023-05-19T05:05:12.070Z,100.00
2023-05-19T05:07:41.912Z,100.00
2023-05-19T05:10:11.562Z,100.00
2023-05-19T05:12:40.370Z,100.00
2023-05-19T05:15:09.946Z,100.00
2023-05-19T05:17:38.714Z,100.00
2023-05-19T05:20:08.524Z,100.00
2023-05-19T05:22:38.700Z,100.00
2023-05-19T05:25:10.335Z,100.00
2023-05-19T05:27:38.602Z,100.00
2023-05-19T05:30:07.791Z,100.00
2023-05-19T05:32:36.025Z,100.00
2023-05-19T05:35:04.340Z,100.00
2023-05-19T05:37:32.653Z,100.00
2023-05-19T05:40:00.812Z,100.00
2023-05-19T05:42:30.360Z,100.00
2023-05-19T05:44:58.468Z,100.00
2023-05-19T05:47:27.209Z,100.00
2023-05-19T05:49:56.052Z,100.00
2023-05-19T05:52:28.980Z,100.00
2023-05-19T05:54:58.058Z,100.00
2023-05-19T05:57:27.089Z,100.00
2023-05-19T05:59:56.729Z,100.00
2023-05-19T06:02:24.980Z,100.00
2023-05-19T06:04:54.224Z,100.00
2023-05-19T06:07:22.908Z,100.00
2023-05-19T06:09:51.214Z,100.00
2023-05-19T06:12:19.408Z,100.00
2023-05-19T06:14:47.754Z,100.00
2023-05-19T06:17:17.352Z,100.00
2023-05-19T06:19:45.594Z,100.00
2023-05-19T06:22:13.691Z,100.00
2023-05-19T06:24:41.963Z,99.85
2023-05-19T06:27:10.164Z,98.50
2023-05-19T06:29:38.356Z,95.18
2023-05-19T06:32:06.669Z,96.91
2023-05-19T06:34:38.367Z,94.28
2023-05-19T06:37:06.461Z,92.97
2023-05-19T06:39:34.489Z,93.96
2023-05-19T06:42:02.524Z,91.29
2023-05-19T06:44:30.652Z,92.61
2023-05-19T06:46:58.898Z,89.67
2023-05-19T06:49:29.436Z,90.09
2023-05-19T06:51:59.110Z,89.84
2023-05-19T06:54:27.277Z,90.88
2023-05-19T06:56:55.780Z,91.06
2023-05-19T06:59:23.959Z,91.78
2023-05-19T07:01:52.107Z,92.22
2023-05-19T07:04:20.248Z,91.04
2023-05-19T07:06:50.257Z,90.94
2023-05-19T07:09:22.250Z,84.99
2023-05-19T07:11:50.368Z,83.39
2023-05-19T07:14:18.551Z,83.35
2023-05-19T07:16:46.771Z,85.26
2023-05-19T07:19:15.097Z,85.12
2023-05-19T07:21:43.653Z,85.71
2023-05-19T07:24:11.747Z,84.14
2023-05-19T07:26:42.651Z,87.46
2023-05-19T07:29:10.779Z,84.58
2023-05-19T07:31:38.974Z,80.24
2023-05-19T07:34:07.146Z,82.13
2023-05-19T07:36:35.385Z,83.84
2023-05-19T07:39:04.220Z,81.73
2023-05-19T07:41:33.828Z,81.39
2023-05-19T07:44:07.583Z,81.19
2023-05-19T07:46:36.219Z,82.15
2023-05-19T07:49:04.550Z,77.31
2023-05-19T07:51:32.767Z,75.29
2023-05-19T07:54:01.173Z,77.14
2023-05-19T07:56:29.588Z,76.28
2023-05-19T07:58:57.876Z,73.74
2023-05-19T08:01:28.362Z,72.54
2023-05-19T08:03:56.617Z,72.17
2023-05-19T08:06:25.430Z,72.35
2023-05-19T08:08:54.318Z,68.51
2023-05-19T08:11:22.678Z,67.55
2023-05-19T08:13:51.018Z,65.31
2023-05-19T08:16:19.162Z,64.52
2023-05-19T08:18:49.104Z,65.68
2023-05-19T08:21:20.060Z,65.39
2023-05-19T08:24:21.149Z,66.31
2023-05-19T08:26:49.440Z,64.31
2023-05-19T08:29:17.659Z,64.03
2023-05-19T08:31:58.571Z,66.10
2023-05-19T08:34:48.785Z,64.83
2023-05-19T08:37:17.223Z,65.61
2023-05-19T08:39:45.559Z,61.95
2023-05-19T08:42:14.172Z,62.81
2023-05-19T08:44:44.134Z,56.21
2023-05-19T08:47:28.246Z,55.96
2023-05-19T08:50:11.326Z,56.09
2023-05-19T08:52:52.415Z,55.52
2023-05-19T08:55:41.840Z,53.28
2023-05-19T08:58:38.534Z,54.47
2023-05-19T09:01:16.122Z,52.73
2023-05-19T09:03:53.932Z,51.95
2023-05-19T09:06:45.489Z,50.46
2023-05-19T09:09:13.950Z,50.18
2023-05-19T09:11:45.248Z,49.95
2023-05-19T09:14:16.092Z,50.86
2023-05-19T09:16:50.038Z,51.10
2023-05-19T09:19:21.489Z,51.15
2023-05-19T09:22:28.037Z,49.98
2023-05-19T09:25:25.378Z,49.89
2023-05-19T09:28:37.525Z,50.64
2023-05-19T09:31:15.855Z,51.65
2023-05-19T09:34:00.579Z,51.74
2023-05-19T09:39:53.240Z,54.52
2023-05-19T09:42:30.438Z,53.03
2023-05-19T09:45:02.702Z,53.42
2023-05-19T09:47:43.836Z,52.43
2023-05-19T09:50:17.330Z,52.74
2023-05-19T09:52:51.724Z,54.13
2023-05-19T09:55:23.299Z,54.30
2023-05-19T09:57:53.003Z,54.50
2023-05-19T10:00:27.026Z,54.28
2023-05-19T10:02:57.692Z,53.48
2023-05-19T10:05:28.982Z,52.66
2023-05-19T10:07:57.561Z,49.89
2023-05-19T10:10:29.092Z,47.08
2023-05-19T10:13:08.732Z,46.33
2023-05-19T10:15:58.937Z,45.69
2023-05-19T10:18:29.811Z,46.21
2023-05-19T10:21:08.186Z,47.48
2023-05-19T10:23:39.830Z,48.77
2023-05-19T10:26:11.441Z,49.15
2023-05-19T10:28:48.873Z,48.28
2023-05-19T10:31:20.806Z,42.52
2023-05-19T10:34:06.677Z,43.34
2023-05-19T10:36:47.654Z,43.74
2023-05-19T10:39:28.247Z,44.08
2023-05-19T10:42:09.085Z,43.06
2023-05-19T10:45:07.969Z,44.76
2023-05-19T10:47:45.575Z,44.59
2023-05-19T10:50:19.708Z,44.41
2023-05-19T10:52:58.064Z,45.69
2023-05-19T10:55:59.087Z,46.56
2023-05-19T10:59:01.696Z,47.81
2023-05-19T11:01:45.485Z,46.34
2023-05-19T11:04:16.146Z,46.47
2023-05-19T11:06:57.190Z,44.36
2023-05-19T11:09:40.045Z,44.93
2023-05-19T11:12:11.996Z,45.98
2023-05-19T11:15:01.387Z,45.02
2023-05-19T11:17:31.434Z,44.36
2023-05-19T11:20:00.948Z,43.54
2023-05-19T11:22:39.576Z,42.42
2023-05-19T11:25:09.193Z,42.34
2023-05-19T11:27:41.463Z,42.66
2023-05-19T11:30:17.963Z,42.86
2023-05-19T11:32:49.730Z,42.73
2023-05-19T11:35:28.437Z,41.12
2023-05-19T11:37:57.666Z,39.93
2023-05-19T11:40:30.296Z,40.87
2023-05-19T11:43:25.054Z,39.64
2023-05-19T11:49:10.670Z,39.41
2023-05-19T11:51:40.935Z,39.00
2023-05-19T11:54:27.781Z,39.05
2023-05-19T11:56:56.077Z,39.17
2023-05-19T11:59:36.258Z,39.72
2023-05-19T12:02:20.107Z,40.30
2023-05-19T12:04:58.174Z,38.75
2023-05-19T12:07:33.611Z,39.62
2023-05-19T12:10:06.445Z,40.12
2023-05-19T12:12:36.609Z,38.08
2023-05-19T12:15:07.386Z,37.40
2023-05-19T12:17:37.490Z,36.24
2023-05-19T12:20:14.078Z,35.58
2023-05-19T12:23:02.728Z,37.44
2023-05-19T12:25:32.082Z,34.72
2023-05-19T12:28:03.577Z,33.97
2023-05-19T12:30:33.628Z,33.38
2023-05-19T12:33:05.181Z,32.34
2023-05-19T12:35:34.492Z,33.44
2023-05-19T12:38:07.862Z,34.51
2023-05-19T12:40:37.528Z,34.35
2023-05-19T12:43:07.014Z,33.10
2023-05-19T12:45:39.023Z,31.94
2023-05-19T12:48:16.066Z,31.33
2023-05-19T12:50:45.290Z,31.32
2023-05-19T12:53:13.860Z,31.37
2023-05-19T12:55:43.775Z,30.15
2023-05-19T12:58:12.693Z,29.95
2023-05-19T13:00:45.291Z,27.83
2023-05-19T13:03:22.386Z,26.48
2023-05-19T13:05:52.406Z,24.59
2023-05-19T13:08:30.026Z,23.95
2023-05-19T13:10:58.359Z,21.96
2023-05-19T13:13:27.063Z,21.60
2023-05-19T13:15:58.539Z,20.20
2023-05-19T13:21:18.669Z,18.77
2023-05-19T13:23:46.834Z,17.81
2023-05-19T13:26:24.386Z,18.12
2023-05-19T13:28:55.715Z,17.30
2023-05-19T13:31:29.125Z,18.06
2023-05-19T13:34:01.384Z,19.08
2023-05-19T13:36:33.417Z,20.39
2023-05-19T13:42:15.747Z,28.00
2023-05-19T13:44:48.725Z,33.34
2023-05-19T13:47:29.983Z,38.32
2023-05-19T13:49:59.776Z,41.65
2023-05-19T13:52:29.790Z,45.89
2023-05-19T13:55:06.451Z,49.14
2023-05-19T13:57:41.596Z,57.33
2023-05-19T14:00:24.439Z,65.48
2023-05-19T14:02:52.994Z,71.30
2023-05-19T14:05:23.230Z,79.72
2023-05-19T14:07:57.812Z,83.78
2023-05-19T14:10:46.161Z,91.38
2023-05-19T14:13:32.595Z,94.26
2023-05-19T14:16:02.972Z,93.89
2023-05-19T14:18:32.526Z,96.35
2023-05-19T14:21:02.262Z,94.83
2023-05-19T14:23:30.812Z,94.77
2023-05-19T14:25:59.055Z,95.28
2023-05-19T14:28:27.464Z,94.65
2023-05-19T14:30:55.627Z,91.31
2023-05-19T14:33:24.138Z,93.81
2023-05-19T14:36:00.347Z,94.95
2023-05-19T14:38:29.930Z,97.31
2023-05-19T14:40:58.214Z,99.41
2023-05-19T14:43:26.290Z,98.46
2023-05-19T14:45:54.352Z,92.81
2023-05-19T14:48:22.457Z,88.62
2023-05-19T14:50:50.644Z,84.70
2023-05-19T14:53:18.738Z,78.39
2023-05-19T14:55:50.271Z,69.71
2023-05-19T14:58:28.160Z,54.86
2023-05-19T15:00:59.132Z,49.50
2023-05-19T15:03:27.355Z,45.82
2023-05-19T15:05:55.394Z,40.73
2023-05-19T15:08:23.503Z,36.08
2023-05-19T15:10:52.842Z,33.60
2023-05-19T15:13:21.576Z,31.65
2023-05-19T15:15:49.754Z,30.46
2023-05-19T15:18:18.870Z,29.98
2023-05-19T15:20:46.906Z,30.06
2023-05-19T15:23:14.970Z,27.94
2023-05-19T15:25:43.092Z,26.13
2023-05-19T15:28:13.674Z,25.25
2023-05-19T15:30:42.971Z,24.80
2023-05-19T15:33:11.797Z,26.62
2023-05-19T15:35:39.915Z,28.97
2023-05-19T15:38:08.001Z,31.30
2023-05-19T15:40:36.324Z,33.57
2023-05-19T15:43:04.361Z,35.89
2023-05-19T15:45:33.914Z,38.96
2023-05-19T15:48:01.942Z,40.42
2023-05-19T15:50:30.287Z,42.21
2023-05-19T15:52:58.456Z,45.14
2023-05-19T15:55:26.645Z,47.75
2023-05-19T15:57:54.562Z,51.29
2023-05-19T16:00:22.815Z,53.48
2023-05-19T16:02:53.779Z,55.79
2023-05-19T16:05:21.988Z,59.06
2023-05-19T16:07:50.005Z,60.29
2023-05-19T16:10:18.152Z,63.39
2023-05-19T16:12:46.171Z,65.34
2023-05-19T16:15:14.216Z,67.09
2023-05-19T16:17:42.277Z,68.76
2023-05-19T16:20:12.711Z,68.85
2023-05-19T16:22:40.746Z,68.58
2023-05-19T16:25:09.774Z,69.59
2023-05-19T16:27:37.689Z,70.35
2023-05-19T16:30:06.654Z,72.33
2023-05-19T16:32:34.768Z,74.39
2023-05-19T16:35:02.945Z,73.60
2023-05-19T16:37:32.422Z,73.27
2023-05-19T16:40:00.432Z,71.18
2023-05-19T16:42:28.539Z,72.86
2023-05-19T16:44:56.855Z,74.40
2023-05-19T16:47:24.946Z,79.96
2023-05-19T16:49:53.068Z,83.75
2023-05-19T16:52:21.062Z,86.59
2023-05-19T16:54:50.462Z,87.53
2023-05-19T16:57:18.526Z,88.29
2023-05-19T16:59:46.487Z,87.00
2023-05-19T17:02:14.595Z,86.27
2023-05-19T17:04:42.639Z,85.64
2023-05-19T17:07:15.520Z,86.86
2023-05-19T17:09:43.730Z,85.56
2023-05-19T17:12:13.379Z,87.18
2023-05-19T17:14:42.340Z,89.08
2023-05-19T17:17:10.595Z,90.44
2023-05-19T17:19:38.655Z,91.04
2023-05-19T17:22:06.632Z,91.94
2023-05-19T17:24:34.555Z,93.59
2023-05-19T17:27:02.799Z,94.76
2023-05-19T17:29:32.319Z,96.77
2023-05-19T17:32:00.458Z,98.25
2023-05-19T17:34:30.107Z,100.00
2023-05-19T17:36:58.188Z,100.00
2023-05-19T17:39:26.279Z,100.00
2023-05-19T17:41:54.262Z,100.00
2023-05-19T17:44:22.308Z,100.00
2023-05-19T17:46:51.827Z,100.00
2023-05-19T17:49:20.073Z,100.00
2023-05-19T17:51:48.532Z,100.00
2023-05-19T17:54:17.120Z,100.00
2023-05-19T17:56:46.453Z,100.00
2023-05-19T17:59:14.769Z,100.00
2023-05-19T18:01:43.454Z,100.00
2023-05-19T18:04:16.501Z,100.00
2023-05-19T18:06:45.820Z,100.00
2023-05-19T18:09:15.059Z,100.00
2023-05-19T18:11:43.064Z,100.00
2023-05-19T18:14:11.524Z,100.00
2023-05-19T18:16:39.551Z,100.00
2023-05-19T18:19:07.806Z,100.00
2023-05-19T18:21:37.269Z,100.00
2023-05-19T18:24:05.954Z,100.00
2023-05-19T18:26:34.287Z,100.00
2023-05-19T18:29:04.908Z,100.00
2023-05-19T18:31:33.162Z,100.00
2023-05-19T18:34:01.175Z,100.00
2023-05-19T18:36:29.182Z,100.00
2023-05-19T18:39:00.567Z,100.00
2023-05-19T18:41:28.968Z,100.00
2023-05-19T18:43:56.945Z,100.00
2023-05-19T18:46:25.296Z,100.00
2023-05-19T18:48:53.380Z,100.00
2023-05-19T18:51:21.815Z,100.00
2023-05-19T18:53:50.660Z,100.00
2023-05-19T18:56:26.110Z,100.00
2023-05-19T18:58:54.305Z,100.00
2023-05-19T19:01:22.349Z,100.00
2023-05-19T19:03:50.644Z,100.00
2023-05-19T19:06:20.662Z,100.00
2023-05-19T19:08:48.781Z,100.00
2023-05-19T19:11:16.794Z,100.00
2023-05-19T19:13:46.386Z,100.00
2023-05-19T19:16:14.444Z,100.00
2023-05-19T19:18:42.409Z,100.00
2023-05-19T19:21:10.370Z,100.00
2023-05-19T19:23:39.403Z,100.00
2023-05-19T19:26:08.559Z,100.00
2023-05-19T19:28:37.058Z,100.00
2023-05-19T19:31:06.564Z,100.00
2023-05-19T19:33:34.705Z,100.00
2023-05-19T19:36:02.758Z,100.00
2023-05-19T19:38:30.905Z,100.00
2023-05-19T19:40:59.190Z,100.00
2023-05-19T19:43:27.333Z,100.00
2023-05-19T19:46:00.681Z,100.00
2023-05-19T19:48:30.164Z,100.00
2023-05-19T19:50:58.648Z,100.00
2023-05-19T19:53:27.049Z,100.00
2023-05-19T19:55:59.375Z,100.00
2023-05-19T19:58:28.265Z,100.00
2023-05-19T20:00:59.778Z,100.00
2023-05-19T20:03:29.610Z,100.00
2023-05-19T20:05:58.151Z,100.00
2023-05-19T20:08:26.991Z,100.00
2023-05-19T20:10:55.455Z,100.00
2023-05-19T20:13:23.800Z,100.00
2023-05-19T20:15:51.841Z,100.00
2023-05-19T20:18:19.862Z,100.00
2023-05-19T20:20:49.219Z,100.00
2023-05-19T20:23:17.230Z,100.00
2023-05-19T20:26:02.343Z,100.00
2023-05-19T20:28:35.032Z,100.00
2023-05-19T20:31:03.237Z,100.00
2023-05-19T20:33:31.775Z,100.00
2023-05-19T20:36:01.349Z,100.00
2023-05-19T20:38:29.304Z,100.00
2023-05-19T20:40:57.341Z,100.00
2023-05-19T20:43:25.555Z,100.00
2023-05-19T20:45:53.532Z,100.00
2023-05-19T20:48:21.712Z,100.00
2023-05-19T20:50:49.704Z,100.00
2023-05-19T20:53:21.295Z,100.00
2023-05-19T20:55:49.585Z,100.00
2023-05-19T20:58:17.621Z,100.00
2023-05-19T21:00:45.603Z,100.00
2023-05-19T21:03:13.790Z,100.00
2023-05-19T21:05:41.844Z,100.00
2023-05-19T21:08:12.792Z,100.00
2023-05-19T21:10:42.511Z,100.00
2023-05-19T21:13:10.468Z,100.00
2023-05-19T21:15:38.658Z,100.00
2023-05-19T21:18:07.857Z,100.00
2023-05-19T21:20:35.982Z,100.00
2023-05-19T21:23:04.146Z,100.00
2023-05-19T21:25:32.457Z,100.00
2023-05-19T21:28:01.779Z,100.00
2023-05-19T21:30:29.771Z,100.00
2023-05-19T21:32:57.989Z,100.00
2023-05-19T21:35:26.057Z,100.00
2023-05-19T21:37:54.146Z,100.00
2023-05-19T21:40:22.209Z,100.00
2023-05-19T21:42:50.213Z,100.00
2023-05-19T21:45:19.704Z,100.00
2023-05-19T21:47:47.987Z,100.00
2023-05-19T21:50:17.472Z,100.00
2023-05-19T21:52:45.524Z,100.00
2023-05-19T21:55:13.521Z,100.00
2023-05-19T21:57:41.664Z,100.00
2023-05-19T22:00:13.154Z,100.00
2023-05-19T22:02:43.128Z,100.00
2023-05-19T22:05:12.019Z,100.00
2023-05-19T22:07:39.983Z,100.00
2023-05-19T22:10:08.928Z,100.00
2023-05-19T22:12:36.993Z,100.00
2023-05-19T22:15:06.573Z,100.00
2023-05-19T22:17:34.552Z,100.00
2023-05-19T22:20:04.058Z,100.00
2023-05-19T22:22:32.275Z,100.00
2023-05-19T22:25:00.388Z,100.00
2023-05-19T22:27:28.526Z,100.00
2023-05-19T22:29:56.684Z,100.00
2023-05-19T22:32:24.811Z,100.00
2023-05-19T22:34:52.937Z,100.00
2023-05-19T22:37:24.258Z,100.00
2023-05-19T22:39:52.365Z,100.00
2023-05-19T22:42:20.530Z,100.00
2023-05-19T22:44:48.672Z,100.00
2023-05-19T22:47:16.665Z,100.00
2023-05-19T22:49:44.874Z,100.00
2023-05-19T22:52:13.098Z,100.00
2023-05-19T22:54:42.459Z,100.00
2023-05-19T22:57:10.586Z,100.00
2023-05-19T22:59:38.771Z,100.00
2023-05-19T23:02:07.076Z,100.00
2023-05-19T23:04:35.689Z,100.00
2023-05-19T23:07:03.944Z,100.00
2023-05-19T23:09:32.077Z,100.00
2023-05-19T23:12:01.417Z,100.00
2023-05-19T23:14:29.509Z,100.00
2023-05-19T23:16:57.640Z,100.00
2023-05-19T23:19:25.813Z,100.00
2023-05-19T23:21:53.783Z,100.00
2023-05-19T23:24:21.909Z,100.00
2023-05-19T23:26:50.081Z,100.00
2023-05-19T23:29:19.568Z,100.00
2023-05-19T23:31:47.821Z,100.00
2023-05-19T23:34:16.032Z,100.00
2023-05-19T23:36:44.009Z,100.00
2023-05-19T23:39:13.541Z,100.00
2023-05-19T23:41:41.533Z,100.00
2023-05-19T23:44:09.948Z,100.00
2023-05-19T23:46:39.386Z,100.00
2023-05-19T23:49:07.449Z,100.00
2023-05-19T23:51:35.601Z,100.00
2023-05-19T23:54:03.595Z,100.00
2023-05-19T23:56:31.699Z,100.00
2023-05-19T23:58:59.736Z,100.00
